Time;durP1;ratioP1;P1;durP2;ratioP2;P2;SDS_P1;SDS_P2;PMS_P1;PMS_P2;Temp;Humidity;BMP_temperature;BMP_pressure;BME280_temperature;BME280_humidity;BME280_pressure;Samples;Min_cycle;Max_cycle;Signal;HPM_P1;HPM_P2
2021/04/25 00:02:25;;;;;;;13.80;6.33;;;;;;;3.40;68.30;100285.05;232741;1169;115435;-62
2021/04/25 00:07:32;;;;;;;12.00;6.37;;;;;;;3.35;68.52;100290.05;233655;1171;115173;-63
2021/04/25 00:12:41;;;;;;;10.07;6.23;;;;;;;3.27;67.54;100276.91;233196;1174;114709;-62
2021/04/25 00:17:48;;;;;;;11.68;7.30;;;;;;;3.20;68.53;100289.95;233496;1173;115117;-62
2021/04/25 00:22:53;;;;;;;16.30;8.88;;;;;;;3.27;68.65;100284.82;233411;1174;115340;-62
2021/04/25 00:27:57;;;;;;;21.40;10.00;;;;;;;3.29;68.86;100281.02;232989;1174;115823;-63
2021/04/25 00:33:02;;;;;;;18.43;9.07;;;;;;;3.31;67.79;100275.58;233815;1174;115726;-63
2021/04/25 00:38:06;;;;;;;18.48;8.15;;;;;;;3.28;69.11;100281.19;233685;1174;114722;-62
2021/04/25 00:43:09;;;;;;;15.58;7.75;;;;;;;3.20;67.94;100282.05;233162;1173;114716;-63
2021/04/25 00:48:14;;;;;;;14.10;6.45;;;;;;;3.14;67.92;100268.75;233807;1173;115203;-62
2021/04/25 00:53:17;;;;;;;16.70;8.30;;;;;;;3.11;69.06;100262.01;235464;1173;115205;-63
2021/04/25 00:58:22;;;;;;;38.30;14.40;;;;;;;3.12;68.37;100271.55;235412;1174;114504;-63
2021/04/25 01:03:26;;;;;;;38.05;16.35;;;;;;;3.07;68.23;100265.98;235404;1173;115223;-63
2021/04/25 01:08:29;;;;;;;37.07;14.53;;;;;;;3.03;68.07;100259.45;235438;1173;115974;-63
2021/04/25 01:13:33;;;;;;;55.13;22.70;;;;;;;3.03;69.33;100268.16;235358;1173;115181;-62
2021/04/25 01:18:36;;;;;;;43.97;18.03;;;;;;;2.99;68.51;100266.87;235325;1173;114968;-63
2021/04/25 01:23:39;;;;;;;54.63;18.47;;;;;;;2.98;68.22;100257.33;235201;1173;115715;-63
2021/04/25 01:28:43;;;;;;;40.83;17.35;;;;;;;3.04;68.74;100264.55;235044;1167;115976;-63
2021/04/25 01:33:49;;;;;;;41.15;15.45;;;;;;;3.03;68.11;100256.81;232472;1174;116729;-63
2021/04/25 01:38:53;;;;;;;40.30;19.00;;;;;;;3.02;68.65;100255.17;233858;1174;116007;-62
2021/04/25 01:43:57;;;;;;;44.08;19.23;;;;;;;2.99;69.37;100258.97;233035;1174;119906;-62
2021/04/25 01:48:59;;;;;;;28.80;18.10;;;;;;;2.93;69.53;100246.48;232531;1174;118255;-63
2021/04/25 01:54:04;;;;;;;31.45;16.73;;;;;;;2.93;69.81;100243.85;232849;1174;117245;-62
2021/04/25 01:59:08;;;;;;;28.05;12.68;;;;;;;2.99;69.83;100255.52;233251;1174;115697;-62
2021/04/25 02:04:13;;;;;;;18.70;10.73;;;;;;;3.03;69.16;100249.73;232715;1173;115574;-62
2021/04/25 02:09:21;;;;;;;22.68;10.45;;;;;;;3.06;70.21;100242.48;233166;1173;114792;-62
2021/04/25 02:14:26;;;;;;;16.20;6.73;;;;;;;3.06;69.07;100237.21;234544;1174;116878;-62
2021/04/25 02:19:30;;;;;;;15.10;7.73;;;;;;;3.08;69.44;100235.19;232693;1173;115950;-62
2021/04/25 02:24:34;;;;;;;15.05;9.08;;;;;;;3.08;69.35;100232.56;232724;1173;116005;-62
2021/04/25 02:29:37;;;;;;;24.48;11.70;;;;;;;3.08;68.85;100232.56;234106;1171;115700;-62
2021/04/25 02:34:40;;;;;;;22.17;9.43;;;;;;;3.10;69.32;100228.77;232613;1174;116106;-62
2021/04/25 02:39:44;;;;;;;13.68;6.90;;;;;;;3.12;69.63;100223.32;232565;1174;115827;-63
2021/04/25 02:44:48;;;;;;;17.08;7.58;;;;;;;3.14;68.72;100226.60;233751;1174;116283;-62
2021/04/25 02:49:50;;;;;;;14.98;7.30;;;;;;;3.18;69.45;100225.27;233393;1174;115986;-62
2021/04/25 02:54:55;;;;;;;15.80;8.60;;;;;;;3.14;69.14;100226.60;232801;1173;115940;-61
2021/04/25 02:59:57;;;;;;;12.33;7.70;;;;;;;3.08;69.39;100229.92;235316;1173;114873;-62
2021/04/25 03:05:00;;;;;;;16.53;9.27;;;;;;;3.06;69.02;100230.09;235393;1169;114908;-63
2021/04/25 03:10:06;;;;;;;17.85;8.93;;;;;;;3.15;69.57;100233.52;235460;1173;114542;-62
2021/04/25 03:15:11;;;;;;;16.63;9.65;;;;;;;3.18;69.33;100225.27;234389;1173;114721;-62
2021/04/25 03:20:18;;;;;;;20.15;10.65;;;;;;;3.15;69.12;100236.14;235452;1173;114838;-63
2021/04/25 03:25:22;;;;;;;27.95;11.80;;;;;;;3.18;69.25;100233.98;235162;1173;114862;-63
2021/04/25 03:30:27;;;;;;;60.10;22.47;;;;;;;3.20;68.83;100225.91;234777;1173;115985;-63
2021/04/25 03:35:30;;;;;;;18.05;8.48;;;;;;;3.21;68.78;100223.10;234430;1173;114785;-63
2021/04/25 03:40:33;;;;;;;21.47;9.60;;;;;;;3.21;69.02;100223.10;233920;1173;114713;-62
2021/04/25 03:45:36;;;;;;;19.45;9.95;;;;;;;3.23;68.81;100228.20;233670;1173;114703;-62
2021/04/25 03:50:40;;;;;;;13.20;8.03;;;;;;;3.24;68.59;100228.02;232547;1173;114617;-61
2021/04/25 03:55:44;;;;;;;12.87;7.67;;;;;;;3.29;68.40;100224.87;233737;1174;115608;-62
2021/04/25 04:00:47;;;;;;;18.80;9.53;;;;;;;3.25;67.42;100219.13;233004;1174;115411;-62
2021/04/25 04:05:50;;;;;;;24.77;9.67;;;;;;;3.24;68.56;100227.20;232364;1167;114684;-64
2021/04/25 04:10:55;;;;;;;15.50;7.35;;;;;;;3.24;68.01;100224.57;233500;1173;115230;-62
2021/04/25 04:15:58;;;;;;;12.63;6.37;;;;;;;3.26;68.08;100223.40;234321;1173;114664;-62
2021/04/25 04:21:01;;;;;;;9.40;4.75;;;;;;;3.39;68.16;100233.34;234014;1173;115148;-63
2021/04/25 04:26:05;;;;;;;9.68;5.20;;;;;;;3.64;68.06;100231.36;233156;1174;114448;-62
2021/04/25 04:31:09;;;;;;;10.88;4.88;;;;;;;3.82;67.52;100242.39;234009;1173;114773;-62
2021/04/25 04:36:13;;;;;;;10.18;6.23;;;;;;;3.98;66.75;100234.31;233645;1173;114545;-62
2021/04/25 04:41:17;;;;;;;12.33;5.43;;;;;;;4.19;66.61;100238.91;232438;1173;114922;-62
2021/04/25 04:46:21;;;;;;;7.70;6.10;;;;;;;4.31;65.31;100221.59;234103;1174;114797;-62
2021/04/25 04:51:25;;;;;;;11.80;5.67;;;;;;;4.45;65.33;100235.80;233127;1174;115055;-63
2021/04/25 04:56:28;;;;;;;3.38;2.58;;;;;;;4.57;64.93;100246.73;232420;1173;115943;-62
2021/04/25 05:01:31;;;;;;;14.50;5.10;;;;;;;4.58;64.30;100241.27;234173;1173;114738;-62
2021/04/25 05:06:35;;;;;;;7.33;4.80;;;;;;;4.67;63.29;100236.69;233420;1174;115808;-64
2021/04/25 05:11:38;;;;;;;6.43;5.10;;;;;;;4.87;62.69;100223.74;234203;1174;114589;-65
2021/04/25 05:16:43;;;;;;;5.60;2.87;;;;;;;5.52;62.18;100231.50;235330;1173;114457;-63
2021/04/25 05:21:47;;;;;;;2.78;1.48;;;;;;;6.65;60.73;100230.48;235369;1173;114481;-63
2021/04/25 05:26:51;;;;;;;10.38;9.28;;;;;;;7.33;58.44;100234.79;235381;1173;115376;-63
2021/04/25 05:31:55;;;;;;;5.93;3.03;;;;;;;9.75;56.51;100224.66;235309;1173;114932;-63
2021/04/25 05:36:58;;;;;;;6.53;3.93;;;;;;;9.63;55.25;100226.38;235247;1173;114860;-65
2021/04/25 05:42:01;;;;;;;4.00;3.05;;;;;;;9.14;55.94;100229.78;233211;1173;114952;-65
2021/04/25 05:47:05;;;;;;;5.55;3.40;;;;;;;8.93;53.58;100229.05;234101;1174;115958;-64
2021/04/25 05:52:11;;;;;;;7.33;3.38;;;;;;;8.72;53.54;100222.20;233124;1166;116238;-67
2021/04/25 05:57:14;;;;;;;10.27;4.27;;;;;;;8.19;54.27;100231.31;233063;1167;115125;-64
2021/04/25 06:02:18;;;;;;;5.60;3.05;;;;;;;7.87;53.75;100228.49;233626;1173;114914;-64
2021/04/25 06:07:22;;;;;;;4.60;3.53;;;;;;;7.60;53.57;100226.86;233553;1173;114355;-64
2021/04/25 06:12:27;;;;;;;7.88;3.95;;;;;;;7.20;53.79;100225.98;232959;1173;114787;-68
2021/04/25 06:17:30;;;;;;;6.03;2.97;;;;;;;7.00;53.97;100226.75;233560;1171;115013;-63
2021/04/25 06:22:33;;;;;;;4.28;2.53;;;;;;;6.85;53.40;100223.42;235312;1173;115316;-62
2021/04/25 06:27:38;;;;;;;2.18;1.98;;;;;;;6.80;53.88;100225.84;235265;1174;115510;-66
2021/04/25 06:32:41;;;;;;;3.53;1.37;;;;;;;6.75;53.70;100238.86;235413;1173;114368;-63
2021/04/25 06:37:47;;;;;;;2.80;2.23;;;;;;;6.70;53.18;100236.02;233219;1173;115073;-63
2021/04/25 06:42:52;;;;;;;3.37;2.20;;;;;;;6.68;53.47;100228.27;235367;1173;137430;-66
2021/04/25 06:47:56;;;;;;;2.35;1.98;;;;;;;6.84;53.72;100232.39;233784;1173;115208;-66
2021/04/25 06:53:00;;;;;;;2.63;2.20;;;;;;;7.26;53.52;100241.09;232615;1173;115156;-66
2021/04/25 06:58:03;;;;;;;3.73;1.67;;;;;;;8.01;52.91;100231.94;233867;1173;115878;-63
2021/04/25 07:03:08;;;;;;;2.50;1.43;;;;;;;8.82;51.57;100234.23;235004;1174;115464;-63
2021/04/25 07:08:13;;;;;;;3.00;1.60;;;;;;;10.30;51.13;100240.77;235091;1173;115018;-65
2021/04/25 07:13:16;;;;;;;5.30;3.95;;;;;;;11.13;49.69;100236.50;235212;1173;116959;-65
2021/04/25 07:18:20;;;;;;;2.87;1.63;;;;;;;11.13;47.98;100231.16;235161;1174;114817;-65
2021/04/25 07:23:24;;;;;;;5.48;1.90;;;;;;;11.17;48.21;100239.53;235228;1173;114937;-65
2021/04/25 07:28:29;;;;;;;4.90;1.87;;;;;;;11.50;48.07;100231.05;235207;1174;115310;-65
2021/04/25 07:33:33;;;;;;;2.67;1.57;;;;;;;11.84;47.86;100234.05;235201;1174;115307;-65
2021/04/25 07:38:38;;;;;;;3.75;1.90;;;;;;;11.96;46.76;100232.18;234963;1173;116174;-65
2021/04/25 07:43:42;;;;;;;2.20;1.23;;;;;;;12.13;46.18;100225.11;233804;1173;114516;-65
2021/04/25 07:48:45;;;;;;;2.80;1.60;;;;;;;12.01;45.59;100232.30;233452;1173;115086;-65
2021/04/25 07:53:51;;;;;;;4.87;1.90;;;;;;;12.21;45.43;100231.97;233128;1167;114632;-64
2021/04/25 07:58:55;;;;;;;2.80;2.20;;;;;;;11.87;44.55;100236.27;232378;1168;116646;-66
2021/04/25 08:03:57;;;;;;;4.43;1.73;;;;;;;11.48;44.27;100233.95;232391;1173;116112;-66
2021/04/25 08:09:01;;;;;;;1.75;1.35;;;;;;;11.12;43.90;100234.87;232252;1173;115906;-67
2021/04/25 08:14:05;;;;;;;9.75;1.60;;;;;;;10.83;44.22;100248.18;232374;1173;116131;-66
2021/04/25 08:19:08;;;;;;;1.60;1.50;;;;;;;10.90;43.71;100246.25;232358;1173;115306;-66
2021/04/25 08:24:12;;;;;;;1.63;1.10;;;;;;;10.26;42.94;100244.91;233319;1167;115811;-67
2021/04/25 08:29:16;;;;;;;1.33;1.10;;;;;;;9.73;43.03;100238.19;233237;1173;115972;-64
2021/04/25 08:34:20;;;;;;;3.60;1.38;;;;;;;9.60;43.73;100234.80;232333;1174;114800;-65
2021/04/25 08:39:23;;;;;;;1.73;1.33;;;;;;;10.02;43.53;100222.58;233740;1173;115386;-63
2021/04/25 08:44:26;;;;;;;1.23;1.10;;;;;;;10.38;43.37;100235.17;232303;1173;115133;-66
2021/04/25 08:49:30;;;;;;;1.68;1.23;;;;;;;10.81;43.95;100229.73;232369;1174;115653;-69
2021/04/25 08:54:33;;;;;;;2.03;0.83;;;;;;;10.73;42.54;100230.03;232389;1173;115859;-67
2021/04/25 08:59:37;;;;;;;1.33;1.07;;;;;;;10.15;41.72;100238.42;232413;1173;115003;-67
2021/04/25 09:04:40;;;;;;;0.93;0.93;;;;;;;9.66;41.58;100212.64;233006;1173;115847;-67
2021/04/25 09:09:50;;;;;;;2.93;1.08;;;;;;;10.11;43.89;100222.05;232273;1167;115031;-67
2021/04/25 09:14:54;;;;;;;4.80;1.50;;;;;;;10.79;42.51;100218.47;232477;1173;115230;-66
2021/04/25 09:19:59;;;;;;;1.20;1.05;;;;;;;10.60;41.04;100220.35;235298;1173;116006;-63
2021/04/25 09:25:07;;;;;;;1.00;0.70;;;;;;;10.89;41.21;100196.61;235269;1173;115087;-64
2021/04/25 09:30:11;;;;;;;1.00;1.00;;;;;;;10.44;40.27;100210.27;235332;1173;116107;-64
2021/04/25 09:35:21;;;;;;;1.28;0.73;;;;;;;10.49;39.21;100201.61;235188;1174;115704;-65
2021/04/25 09:40:26;;;;;;;1.10;0.87;;;;;;;11.08;40.42;100203.52;235098;1174;114833;-64
2021/04/25 09:45:35;;;;;;;0.93;0.73;;;;;;;11.65;39.98;100203.90;235145;1173;114487;-63
2021/04/25 09:50:39;;;;;;;0.67;0.63;;;;;;;11.69;37.30;100197.88;235432;1167;115029;-63
2021/04/25 09:55:42;;;;;;;0.58;0.58;;;;;;;11.44;37.56;100194.59;232935;1174;115330;-63
2021/04/25 10:00:51;;;;;;;1.33;1.23;;;;;;;11.80;38.33;100204.31;234644;1173;115349;-64
2021/04/25 10:06:06;;;;;;;2.53;1.38;;;;;;;12.29;38.00;100208.36;233658;1174;114743;-64
2021/04/25 10:11:09;;;;;;;2.15;1.93;;;;;;;12.41;37.58;100203.81;233382;1174;115630;-64
2021/04/25 10:16:20;;;;;;;0.98;0.85;;;;;;;12.54;36.38;100189.36;233267;1167;114837;-64
2021/04/25 10:21:25;;;;;;;1.65;1.55;;;;;;;12.63;36.80;100189.81;235078;1173;115245;-65
2021/04/25 10:26:37;;;;;;;1.23;0.93;;;;;;;12.73;36.19;100190.02;235170;1174;115181;-66
2021/04/25 10:31:40;;;;;;;1.43;0.90;;;;;;;11.81;34.40;100197.92;233149;1174;115083;-66
2021/04/25 10:36:47;;;;;;;0.80;0.80;;;;;;;11.34;35.52;100196.98;235237;1173;115727;-64
2021/04/25 10:41:50;;;;;;;2.75;1.15;;;;;;;12.04;36.44;100194.44;235364;1173;114623;-64
2021/04/25 10:46:55;;;;;;;0.90;0.40;;;;;;;12.54;35.38;100183.20;232505;1174;115491;-64
2021/04/25 10:52:23;;;;;;;1.15;0.80;;;;;;;12.57;34.77;100182.73;232161;1174;115552;-63
2021/04/25 10:57:26;;;;;;;1.88;1.78;;;;;;;12.54;35.09;100188.55;233886;1170;115137;-64
2021/04/25 11:02:49;;;;;;;1.58;1.18;;;;;;;12.16;35.24;100197.11;233843;1173;114573;-65
2021/04/25 11:07:52;;;;;;;1.23;0.70;;;;;;;11.95;35.16;100204.65;234843;1167;116570;-64
2021/04/25 11:12:55;;;;;;;2.68;0.65;;;;;;;11.89;34.69;100202.93;233624;1174;116186;-64
2021/04/25 11:17:58;;;;;;;0.75;0.75;;;;;;;11.30;33.77;100206.52;232630;1173;115651;-67
2021/04/25 11:23:01;;;;;;;0.33;0.33;;;;;;;10.88;34.43;100201.13;232260;1173;115501;-64
2021/04/25 11:28:27;;;;;;;;;;;;;;;10.83;35.16;100210.84;235324;1167;115924;-64
2021/04/25 11:33:34;;;;;;;2.18;0.90;;;;;;;10.80;34.52;100209.44;236157;1174;102651;-63
2021/04/25 11:38:39;;;;;;;1.35;0.70;;;;;;;10.87;35.19;100215.51;235291;1174;114851;-63
2021/04/25 11:43:43;;;;;;;1.60;1.00;;;;;;;10.77;35.71;100215.22;235316;1174;115264;-63
2021/04/25 11:49:00;;;;;;;1.65;1.08;;;;;;;10.61;34.63;100216.66;235268;1173;114722;-64
2021/04/25 11:54:19;;;;;;;1.13;0.80;;;;;;;9.96;36.92;100244.75;235191;1168;115416;-63
2021/04/25 11:59:23;;;;;;;0.78;0.78;;;;;;;9.34;38.94;100263.21;235534;1173;114919;-63
2021/04/25 12:04:47;;;;;;;0.75;0.60;;;;;;;9.12;40.41;100259.25;235249;1173;115084;-63
2021/04/25 12:09:50;;;;;;;2.33;0.80;;;;;;;9.15;41.25;100265.99;235226;1174;114382;-63
2021/04/25 12:15:01;;;;;;;1.40;0.85;;;;;;;9.46;41.91;100266.02;234455;1173;115561;-64
2021/04/25 12:20:07;;;;;;;1.25;1.20;;;;;;;9.59;42.28;100273.90;232603;1167;116065;-65
2021/04/25 12:25:10;;;;;;;0.60;0.60;;;;;;;9.93;40.95;100272.63;232661;1174;116107;-64
2021/04/25 12:30:31;;;;;;;1.20;0.68;;;;;;;9.99;41.01;100270.95;233251;1173;115559;-65
2021/04/25 12:35:49;;;;;;;3.35;0.93;;;;;;;10.35;41.43;100276.39;233059;1167;115139;-68
2021/04/25 12:40:54;;;;;;;1.65;0.60;;;;;;;10.37;40.60;100269.00;232669;1173;117205;-66
2021/04/25 12:45:59;;;;;;;1.50;0.43;;;;;;;10.38;40.55;100273.30;233884;1169;116604;-65
2021/04/25 12:51:16;;;;;;;2.63;0.85;;;;;;;10.39;41.07;100263.45;234156;1174;116454;-64
2021/04/25 12:56:23;;;;;;;2.43;1.05;;;;;;;10.11;40.10;100258.53;235115;1174;117393;-65
2021/04/25 13:01:29;;;;;;;0.53;0.53;;;;;;;10.07;40.29;100268.02;235359;1173;116916;-65
2021/04/25 13:06:36;;;;;;;0.83;0.65;;;;;;;9.95;40.25;100257.25;234358;1173;117429;-65
2021/04/25 13:11:41;;;;;;;1.65;0.90;;;;;;;9.82;40.40;100260.00;232769;1174;115753;-66
2021/04/25 13:16:44;;;;;;;1.35;0.35;;;;;;;9.68;40.06;100259.31;234116;1173;116107;-66
2021/04/25 13:21:48;;;;;;;1.23;1.23;;;;;;;9.87;40.13;100243.38;235130;1174;116772;-65
2021/04/25 13:26:52;;;;;;;1.30;0.60;;;;;;;9.84;40.09;100246.48;235025;1174;117070;-63
2021/04/25 13:31:55;;;;;;;2.27;2.07;;;;;;;9.74;39.87;100241.66;235207;1173;116265;-64
2021/04/25 13:36:58;;;;;;;1.00;0.50;;;;;;;9.88;39.38;100226.38;235139;1174;116383;-66
2021/04/25 13:42:02;;;;;;;0.40;0.40;;;;;;;9.98;39.54;100240.02;235307;1174;115750;-65
2021/04/25 13:47:05;;;;;;;0.50;0.50;;;;;;;10.10;38.94;100241.73;235327;1174;116557;-61
2021/04/25 13:52:08;;;;;;;1.75;0.68;;;;;;;10.08;39.23;100254.48;235295;1173;116962;-63
2021/04/25 13:57:12;;;;;;;2.10;1.50;;;;;;;9.73;41.06;100271.98;235392;1173;116085;-65
2021/04/25 14:02:15;;;;;;;3.50;1.33;;;;;;;9.35;42.55;100278.15;234460;1174;116039;-63
2021/04/25 14:07:18;;;;;;;1.37;0.93;;;;;;;9.14;43.05;100285.64;235162;1173;115348;-64
2021/04/25 14:12:21;;;;;;;1.93;1.10;;;;;;;9.01;43.17;100295.29;234585;1174;116529;-63
2021/04/25 14:17:25;;;;;;;1.75;1.33;;;;;;;8.48;44.36;100307.11;232550;1174;117250;-65
2021/04/25 14:22:32;;;;;;;2.05;1.70;;;;;;;7.77;45.18;100307.69;234153;1173;116686;-65
2021/04/25 14:27:52;;;;;;;2.58;1.00;;;;;;;7.08;46.73;100314.03;232978;1174;117120;-67
2021/04/25 14:32:55;;;;;;;1.10;1.10;;;;;;;6.77;47.41;100311.03;232322;1167;116734;-64
2021/04/25 14:37:58;;;;;;;2.33;1.30;;;;;;;6.68;48.01;100277.78;233419;1167;116936;-65
2021/04/25 14:43:04;;;;;;;4.48;1.88;;;;;;;7.09;48.06;100262.64;233032;1174;115380;-66
2021/04/25 14:48:09;;;;;;;1.40;1.30;;;;;;;7.64;47.55;100258.06;232794;1174;116353;-65
2021/04/25 14:53:12;;;;;;;1.75;1.05;;;;;;;7.96;45.67;100250.31;232505;1173;115888;-66
2021/04/25 14:58:17;;;;;;;2.18;0.60;;;;;;;8.01;45.04;100261.95;233746;1174;116133;-66
2021/04/25 15:03:19;;;;;;;1.60;1.50;;;;;;;8.06;45.08;100256.03;232258;1173;115984;-67
2021/04/25 15:08:23;;;;;;;1.30;1.30;;;;;;;8.09;44.27;100251.13;232873;1173;115942;-65
2021/04/25 15:13:27;;;;;;;4.90;1.13;;;;;;;8.07;43.80;100247.05;233642;1174;115365;-65
2021/04/25 15:18:29;;;;;;;5.28;1.10;;;;;;;8.03;43.58;100240.52;232542;1174;116416;-65
2021/04/25 15:23:33;;;;;;;2.15;1.00;;;;;;;8.08;44.26;100246.03;232589;1173;115418;-64
2021/04/25 15:28:40;;;;;;;0.80;0.80;;;;;;;8.06;42.78;100232.95;233593;1173;115463;-64
2021/04/25 15:33:44;;;;;;;1.40;0.80;;;;;;;8.07;43.29;100223.16;233211;1174;116411;-65
2021/04/25 15:38:52;;;;;;;1.25;1.00;;;;;;;8.07;43.21;100223.16;233938;1170;139435;-65
2021/04/25 15:43:55;;;;;;;1.00;1.00;;;;;;;8.04;43.49;100224.38;235363;1173;115900;-65
2021/04/25 15:48:59;;;;;;;2.60;1.90;;;;;;;8.11;42.70;100229.69;235243;1173;115271;-65
2021/04/25 15:54:03;;;;;;;0.88;0.70;;;;;;;8.16;42.92;100226.42;235513;1174;114477;-65
2021/04/25 15:59:06;;;;;;;1.08;0.98;;;;;;;8.21;42.62;100223.96;235393;1173;114583;-65
2021/04/25 16:04:09;;;;;;;1.30;1.08;;;;;;;8.34;42.19;100210.67;235274;1167;115268;-65
2021/04/25 16:09:12;;;;;;;8.38;1.10;;;;;;;8.46;43.06;100221.48;235150;1173;114793;-62
2021/04/25 16:14:15;;;;;;;1.43;1.03;;;;;;;8.48;42.02;100225.56;235146;1173;117780;-62
2021/04/25 16:19:18;;;;;;;3.03;1.07;;;;;;;8.50;42.50;100222.70;234142;1173;115658;-67
2021/04/25 16:24:21;;;;;;;1.03;0.58;;;;;;;8.53;42.50;100240.88;235330;1173;116181;-65
2021/04/25 16:29:24;;;;;;;1.03;0.70;;;;;;;8.23;43.09;100257.27;234002;1172;114692;-66
2021/04/25 16:34:27;;;;;;;0.67;0.67;;;;;;;7.64;44.04;100257.28;232742;1174;115134;-66
2021/04/25 16:39:35;;;;;;;3.15;0.85;;;;;;;7.20;44.70;100255.95;235334;1174;114807;-62
2021/04/25 16:44:38;;;;;;;1.93;0.85;;;;;;;6.95;45.72;100255.69;235228;1172;115586;-62
2021/04/25 16:49:41;;;;;;;1.80;0.73;;;;;;;6.63;45.89;100256.35;233478;1173;114684;-64
2021/04/25 16:54:44;;;;;;;0.70;0.70;;;;;;;6.48;47.28;100268.89;235201;1174;115083;-65
2021/04/25 16:59:47;;;;;;;1.27;1.17;;;;;;;6.43;47.23;100261.52;234047;1173;114871;-66
2021/04/25 17:04:51;;;;;;;2.33;1.08;;;;;;;6.40;47.89;100251.35;232481;1173;114613;-66
2021/04/25 17:09:54;;;;;;;3.10;1.17;;;;;;;6.35;48.14;100254.58;233934;1174;114753;-62
2021/04/25 17:14:57;;;;;;;1.93;1.55;;;;;;;6.25;48.08;100259.39;232353;1173;115206;-66
2021/04/25 17:20:01;;;;;;;1.63;1.37;;;;;;;6.13;48.15;100263.57;232146;1171;115617;-65
2021/04/25 17:25:10;;;;;;;2.83;1.88;;;;;;;5.98;48.72;100258.39;233766;1173;114816;-65
2021/04/25 17:30:16;;;;;;;1.90;1.50;;;;;;;5.79;49.10;100256.38;234812;1174;115773;-66
2021/04/25 17:35:22;;;;;;;2.65;0.88;;;;;;;5.61;49.13;100254.17;234349;1173;115358;-66
2021/04/25 17:40:28;;;;;;;8.43;7.73;;;;;;;5.39;50.41;100261.30;234179;1174;114792;-64
2021/04/25 17:45:32;;;;;;;1.48;1.30;;;;;;;5.20;51.41;100269.03;235210;1174;114678;-64
2021/04/25 17:50:39;;;;;;;2.23;1.60;;;;;;;4.95;51.85;100265.88;235190;1173;115417;-64
2021/04/25 17:55:42;;;;;;;5.68;1.48;;;;;;;4.74;52.09;100275.39;235169;1173;115023;-64
2021/04/25 18:00:46;;;;;;;1.80;1.50;;;;;;;4.60;53.37;100278.84;235183;1167;115066;-64
2021/04/25 18:05:49;;;;;;;2.00;1.48;;;;;;;4.46;53.18;100281.50;235218;1173;114824;-64
2021/04/25 18:10:52;;;;;;;1.70;1.60;;;;;;;4.30;53.85;100285.94;235305;1173;114765;-67
2021/04/25 18:15:54;;;;;;;1.70;1.13;;;;;;;4.14;53.57;100291.39;235366;1173;114512;-64
2021/04/25 18:20:58;;;;;;;1.90;1.60;;;;;;;3.94;53.68;100299.00;235342;1173;115332;-64
2021/04/25 18:26:01;;;;;;;1.63;1.53;;;;;;;3.72;54.76;100295.36;234272;1173;115497;-64
2021/04/25 18:31:03;;;;;;;2.90;1.50;;;;;;;3.52;54.75;100303.92;232486;1173;115189;-64
2021/04/25 18:36:07;;;;;;;3.73;1.85;;;;;;;3.37;55.30;100301.20;233845;1173;115201;-63
2021/04/25 18:41:10;;;;;;;3.63;1.40;;;;;;;3.22;56.40;100295.05;233319;1174;115669;-63
2021/04/25 18:46:13;;;;;;;3.30;2.10;;;;;;;3.04;56.36;100296.15;233632;1173;115131;-64
2021/04/25 18:51:18;;;;;;;8.68;4.05;;;;;;;2.89;56.53;100299.66;232636;1174;116867;-64
2021/04/25 18:56:22;;;;;;;5.50;3.33;;;;;;;2.79;56.70;100302.48;234119;1174;116207;-63
2021/04/25 19:01:27;;;;;;;9.27;3.63;;;;;;;2.79;58.46;100302.48;232575;1169;117206;-63
2021/04/25 19:06:30;;;;;;;2.98;2.78;;;;;;;2.83;59.30;100306.42;234378;1174;116966;-63
2021/04/25 19:11:33;;;;;;;2.60;1.80;;;;;;;2.82;59.08;100306.59;232572;1173;115117;-63
2021/04/25 19:16:37;;;;;;;8.50;3.45;;;;;;;2.72;59.50;100306.81;233215;1173;115308;-63
2021/04/25 19:21:41;;;;;;;6.70;3.50;;;;;;;2.74;59.28;100291.67;234464;1173;114797;-64
2021/04/25 19:26:43;;;;;;;7.43;3.55;;;;;;;2.79;60.05;100291.13;234834;1174;114860;-63
2021/04/25 19:31:47;;;;;;;12.55;7.60;;;;;;;2.80;60.04;100293.59;232095;1174;115570;-63
2021/04/25 19:36:50;;;;;;;15.38;8.73;;;;;;;2.75;60.02;100293.31;235233;1173;116083;-64
2021/04/25 19:41:52;;;;;;;16.08;7.70;;;;;;;2.77;60.65;100295.75;235151;1174;116402;-64
2021/04/25 19:46:55;;;;;;;12.60;6.85;;;;;;;2.70;60.68;100287.73;232474;1174;115897;-62
2021/04/25 19:52:00;;;;;;;13.10;8.80;;;;;;;2.60;60.76;100293.19;234644;1173;115661;-62
2021/04/25 19:57:04;;;;;;;17.23;9.63;;;;;;;2.51;60.59;100288.11;235422;1173;115564;-62
2021/04/25 20:02:09;;;;;;;15.17;7.70;;;;;;;2.40;60.67;100294.57;235383;1173;115888;-62
2021/04/25 20:07:12;;;;;;;14.60;9.00;;;;;;;2.36;60.63;100301.98;235441;1173;116501;-62
2021/04/25 20:12:15;;;;;;;15.83;9.88;;;;;;;2.36;61.78;100295.89;235229;1173;117149;-62
2021/04/25 20:17:19;;;;;;;16.87;10.07;;;;;;;2.17;61.47;100291.80;235122;1174;116863;-62
2021/04/25 20:22:23;;;;;;;19.43;11.43;;;;;;;1.93;61.95;100290.02;235218;1173;115825;-62
2021/04/25 20:27:27;;;;;;;31.90;18.00;;;;;;;1.72;62.21;100291.52;235206;1174;116102;-63
2021/04/25 20:32:30;;;;;;;29.25;14.70;;;;;;;1.57;62.34;100289.52;234600;1173;115938;-63
2021/04/25 20:37:34;;;;;;;15.40;9.43;;;;;;;1.56;62.67;100281.80;233544;1174;116652;-62
2021/04/25 20:42:38;;;;;;;16.80;9.45;;;;;;;1.60;63.46;100294.45;232851;1173;116008;-62
2021/04/25 20:47:43;;;;;;;5.43;3.18;;;;;;;1.51;63.43;100282.31;233452;1174;115692;-62
2021/04/25 20:52:47;;;;;;;21.23;13.40;;;;;;;1.42;63.65;100285.09;233298;1173;115826;-62
2021/04/25 20:57:52;;;;;;;25.33;10.33;;;;;;;1.40;63.92;100285.25;233454;1174;116213;-62
2021/04/25 21:02:57;;;;;;;36.73;21.03;;;;;;;1.31;64.15;100281.78;233365;1174;115862;-63
2021/04/25 21:08:02;;;;;;;44.30;19.13;;;;;;;1.30;64.36;100277.51;234320;1173;116143;-62
2021/04/25 21:13:08;;;;;;;33.37;16.40;;;;;;;1.21;64.77;100273.25;233900;1174;115847;-62
2021/04/25 21:18:12;;;;;;;24.43;11.83;;;;;;;1.12;64.48;100274.20;233487;1174;116301;-62
2021/04/25 21:23:16;;;;;;;29.95;12.23;;;;;;;1.04;64.67;100268.09;233074;1174;116284;-62
2021/04/25 21:28:19;;;;;;;15.95;7.65;;;;;;;0.90;65.02;100273.00;232431;1173;116630;-63
2021/04/25 21:33:24;;;;;;;17.27;9.00;;;;;;;0.82;65.26;100267.72;233278;1174;115762;-62
2021/04/25 21:38:28;;;;;;;30.78;10.90;;;;;;;0.90;65.31;100273.00;233511;1173;116610;-62
2021/04/25 21:43:31;;;;;;;41.15;19.93;;;;;;;0.95;65.82;100272.50;232563;1174;116039;-62
2021/04/25 21:48:35;;;;;;;43.80;21.55;;;;;;;0.82;65.52;100267.72;232564;1173;115929;-64
2021/04/25 21:53:39;;;;;;;37.90;21.08;;;;;;;0.71;66.35;100267.17;233328;1174;116389;-61
2021/04/25 21:58:43;;;;;;;31.13;13.80;;;;;;;0.72;66.23;100268.81;232822;1174;116971;-62
2021/04/25 22:03:46;;;;;;;22.00;10.07;;;;;;;0.68;66.79;100263.88;235216;1170;116141;-62
2021/04/25 22:08:50;;;;;;;20.45;11.80;;;;;;;0.62;66.21;100254.02;235224;1173;116150;-62
2021/04/25 22:13:54;;;;;;;52.00;16.75;;;;;;;0.53;65.38;100251.53;235254;1173;115902;-62
2021/04/25 22:18:59;;;;;;;40.50;16.90;;;;;;;0.39;65.71;100255.55;235196;1168;116241;-63
2021/04/25 22:24:02;;;;;;;39.63;17.97;;;;;;;0.25;65.70;100250.91;235160;1174;116929;-63
2021/04/25 22:29:05;;;;;;;54.78;21.48;;;;;;;0.10;65.84;100248.02;235099;1174;116518;-62
2021/04/25 22:34:09;;;;;;;51.07;19.00;;;;;;;-0.05;66.04;100233.85;233469;1173;116642;-62
2021/04/25 22:39:13;;;;;;;38.30;15.78;;;;;;;-0.26;66.21;100228.13;233006;1174;116021;-61
2021/04/25 22:44:17;;;;;;;51.23;20.40;;;;;;;-0.45;66.49;100237.81;233984;1173;115659;-62
2021/04/25 22:49:20;;;;;;;46.45;18.98;;;;;;;-0.55;66.63;100234.45;233919;1174;116492;-61
2021/04/25 22:54:26;;;;;;;46.60;19.83;;;;;;;-0.62;67.33;100233.44;233871;1173;116514;-62
2021/04/25 22:59:28;;;;;;;40.35;14.70;;;;;;;-0.62;67.38;100228.20;233564;1173;114886;-61
2021/04/25 23:04:31;;;;;;;28.63;13.45;;;;;;;-0.68;67.12;100226.17;233775;1173;115127;-62
2021/04/25 23:09:33;;;;;;;39.90;15.28;;;;;;;-0.68;67.44;100234.03;233593;1174;115238;-61